Time;durP1;ratioP1;P1;durP2;ratioP2;P2;SDS_P1;SDS_P2;PMS_P1;PMS_P2;Temp;Humidity;BMP_temperature;BMP_pressure;BME280_temperature;BME280_humidity;BME280_pressure;Samples;Min_cycle;Max_cycle;Signal;HPM_P1;HPM_P2
2021/08/12 00:01:37;;;;;;;12.57;8.70;;;14.30;99.90;;;;;;4996982;28;20225;-78
2021/08/12 00:04:04;;;;;;;12.67;8.70;;;14.30;99.90;;;;;;5004745;28;20212;-78
2021/08/12 00:06:31;;;;;;;13.13;9.03;;;14.40;99.90;;;;;;5002426;28;20227;-79
2021/08/12 00:08:58;;;;;;;12.27;9.03;;;14.40;99.90;;;;;;4996788;28;20240;-78
2021/08/12 00:11:25;;;;;;;13.93;8.60;;;14.50;99.90;;;;;;5003461;28;20208;-78
2021/08/12 00:13:51;;;;;;;12.40;8.67;;;14.50;99.90;;;;;;4998652;28;20469;-78
2021/08/12 00:16:18;;;;;;;13.37;9.37;;;14.50;99.90;;;;;;4999537;28;20246;-79
2021/08/12 00:18:52;;;;;;;11.03;8.23;;;14.60;99.90;;;;;;5008386;28;20205;-79
2021/08/12 00:21:19;;;;;;;10.33;7.30;;;14.50;99.90;;;;;;5002825;28;20205;-78
2021/08/12 00:23:46;;;;;;;11.43;7.23;;;14.60;99.90;;;;;;5014329;28;20229;-78
2021/08/12 00:26:13;;;;;;;13.37;6.90;;;14.50;99.90;;;;;;5013674;28;20220;-78
2021/08/12 00:28:39;;;;;;;10.03;6.70;;;14.30;99.90;;;;;;5013427;28;20283;-79
2021/08/12 00:31:06;;;;;;;9.07;6.47;;;14.30;99.90;;;;;;5110763;22;20323;-73
2021/08/12 00:33:34;;;;;;;10.30;6.10;;;14.40;99.90;;;;;;5012376;28;20216;-73
2021/08/12 00:36:03;;;;;;;10.30;6.60;;;14.30;99.90;;;;;;5030544;28;20579;-73
2021/08/12 00:38:30;;;;;;;9.27;6.63;;;14.40;99.90;;;;;;5025427;28;20197;-73
2021/08/12 00:40:57;;;;;;;7.37;6.27;;;14.40;99.90;;;;;;5011153;28;20218;-73
2021/08/12 00:43:24;;;;;;;11.10;6.90;;;14.30;99.90;;;;;;5009313;28;20223;-73
2021/08/12 00:45:50;;;;;;;11.30;7.10;;;14.20;99.90;;;;;;5010269;28;20209;-73
2021/08/12 00:48:17;;;;;;;8.73;7.30;;;14.10;99.90;;;;;;5011422;28;20296;-73
2021/08/12 00:50:45;;;;;;;9.97;6.90;;;13.90;99.90;;;;;;5011189;28;20206;-73
2021/08/12 00:53:13;;;;;;;11.23;7.30;;;13.80;99.90;;;;;;5010808;28;20316;-73
2021/08/12 00:55:43;;;;;;;10.17;6.20;;;13.70;99.90;;;;;;5010960;28;20547;-73
2021/08/12 00:58:10;;;;;;;10.33;6.63;;;13.60;99.90;;;;;;5010905;28;20201;-73
2021/08/12 01:00:37;;;;;;;12.23;6.83;;;13.50;99.90;;;;;;5010992;28;20200;-73
2021/08/12 01:03:05;;;;;;;9.03;7.60;;;13.50;99.90;;;;;;5011134;28;20219;-73
2021/08/12 01:05:34;;;;;;;10.87;7.60;;;13.50;99.90;;;;;;5009581;28;20196;-73
2021/08/12 01:08:07;;;;;;;10.33;8.20;;;13.70;99.90;;;;;;5011520;28;20228;-73
2021/08/12 01:10:45;;;;;;;14.40;9.53;;;13.70;99.90;;;;;;5013391;28;20239;-73
2021/08/12 01:13:17;;;;;;;11.00;7.90;;;13.70;99.90;;;;;;5014867;28;20206;-73
2021/08/12 01:15:52;;;;;;;8.47;6.70;;;13.70;99.90;;;;;;5013486;28;20199;-73
2021/08/12 01:18:28;;;;;;;8.67;6.43;;;13.50;99.90;;;;;;5015120;28;20257;-73
2021/08/12 01:21:34;;;;;;;9.70;6.00;;;13.50;99.90;;;;;;5014173;28;20200;-73
2021/08/12 01:24:05;;;;;;;7.97;6.73;;;13.40;99.90;;;;;;5008990;28;20215;-73
2021/08/12 01:26:35;;;;;;;11.53;7.10;;;13.30;99.90;;;;;;5019419;28;20200;-73
2021/08/12 01:29:06;;;;;;;9.67;7.17;;;13.50;99.90;;;;;;5014613;28;20196;-80
2021/08/12 01:31:44;;;;;;;9.47;6.60;;;13.50;99.90;;;;;;5013850;28;20212;-81
2021/08/12 01:34:22;;;;;;;10.20;7.33;;;13.40;99.90;;;;;;5001531;28;20211;-81
2021/08/12 01:36:54;;;;;;;9.37;7.20;;;13.30;99.90;;;;;;5005478;28;20217;-81
2021/08/12 01:39:22;;;;;;;8.93;6.60;;;13.20;99.90;;;;;;5011767;28;20670;-81
2021/08/12 01:41:50;;;;;;;9.53;7.17;;;13.20;99.90;;;;;;5011662;28;20304;-81
2021/08/12 01:44:18;;;;;;;11.83;7.20;;;13.20;99.90;;;;;;5009203;28;20239;-80
2021/08/12 01:46:47;;;;;;;9.23;7.10;;;13.30;99.90;;;;;;5012887;28;20212;-81
2021/08/12 01:49:14;;;;;;;11.50;7.47;;;13.40;99.90;;;;;;5012648;28;20544;-81
2021/08/12 01:51:42;;;;;;;9.03;7.20;;;13.50;99.90;;;;;;5011891;28;20208;-81
2021/08/12 01:54:11;;;;;;;14.70;7.87;;;13.60;99.90;;;;;;5009963;28;20215;-79
2021/08/12 01:56:38;;;;;;;9.13;7.30;;;13.70;99.90;;;;;;5011210;28;20450;-79
2021/08/12 01:59:07;;;;;;;11.23;7.67;;;13.80;99.90;;;;;;5020600;28;20662;-79
2021/08/12 02:01:34;;;;;;;12.30;7.33;;;13.90;99.90;;;;;;5012736;28;20203;-79
2021/08/12 02:04:02;;;;;;;12.63;7.80;;;14.00;99.90;;;;;;5011530;28;20744;-79
2021/08/12 02:06:36;;;;;;;10.60;7.83;;;13.90;99.90;;;;;;5007764;28;20208;-79
2021/08/12 02:09:03;;;;;;;13.27;8.00;;;14.00;99.90;;;;;;5003056;28;20204;-80
2021/08/12 02:11:33;;;;;;;10.37;7.47;;;14.00;99.90;;;;;;5006759;28;20205;-81
2021/08/12 02:14:00;;;;;;;11.10;7.47;;;14.10;99.90;;;;;;5010110;28;20904;-81
2021/08/12 02:16:27;;;;;;;10.83;7.77;;;14.10;99.90;;;;;;5010517;28;20580;-81
2021/08/12 02:18:55;;;;;;;10.77;7.43;;;14.10;99.90;;;;;;5012217;28;20631;-81
2021/08/12 02:21:26;;;;;;;9.87;7.80;;;14.20;99.90;;;;;;5001167;28;20208;-80
2021/08/12 02:24:01;;;;;;;12.77;7.90;;;14.30;99.90;;;;;;5008791;28;20635;-81
2021/08/12 02:26:34;;;;;;;9.37;7.73;;;14.30;99.90;;;;;;5013383;28;20203;-81
2021/08/12 02:29:02;;;;;;;10.83;7.50;;;14.30;99.90;;;;;;5006764;28;20645;-81
2021/08/12 02:31:31;;;;;;;11.03;7.90;;;14.30;99.90;;;;;;5009825;28;20212;-81
2021/08/12 02:33:58;;;;;;;10.17;7.53;;;14.20;99.90;;;;;;5011062;28;20224;-81
2021/08/12 02:36:26;;;;;;;9.87;7.80;;;14.10;99.90;;;;;;5011384;28;20638;-81
2021/08/12 02:38:55;;;;;;;13.70;8.87;;;14.00;99.90;;;;;;4996256;28;20205;-81
2021/08/12 02:41:23;;;;;;;11.17;8.23;;;14.00;99.90;;;;;;4998095;28;20193;-81
2021/08/12 02:43:52;;;;;;;12.57;8.03;;;14.00;99.90;;;;;;5011826;28;20235;-81
2021/08/12 02:46:23;;;;;;;10.40;7.63;;;14.00;99.90;;;;;;5012102;28;20646;-81
2021/08/12 02:48:51;;;;;;;10.00;7.67;;;13.90;99.90;;;;;;5013145;28;20207;-81
2021/08/12 02:51:19;;;;;;;10.90;7.20;;;13.80;99.90;;;;;;5012405;28;20211;-80
2021/08/12 02:53:46;;;;;;;10.60;7.97;;;13.90;99.90;;;;;;5012267;28;20211;-80
2021/08/12 02:56:15;;;;;;;12.73;7.80;;;13.90;99.90;;;;;;5011629;28;20845;-80
2021/08/12 02:58:42;;;;;;;10.17;7.70;;;13.80;99.90;;;;;;5013129;28;20201;-81
2021/08/12 03:01:12;;;;;;;9.43;7.97;;;13.80;99.90;;;;;;5013056;28;20704;-81
2021/08/12 03:03:42;;;;;;;9.23;7.23;;;13.80;99.90;;;;;;5011025;28;20220;-81
2021/08/12 03:06:12;;;;;;;14.30;8.57;;;13.80;99.90;;;;;;5012186;28;20219;-81
2021/08/12 03:08:40;;;;;;;12.30;8.17;;;13.80;99.90;;;;;;5012671;28;20200;-81
2021/08/12 03:11:09;;;;;;;13.10;8.07;;;13.70;99.90;;;;;;5013023;28;20211;-81
2021/08/12 03:13:36;;;;;;;12.47;8.53;;;13.70;99.90;;;;;;5011595;28;20204;-81
2021/08/12 03:16:06;;;;;;;11.07;7.67;;;13.60;99.90;;;;;;5012145;28;20208;-81
2021/08/12 03:18:35;;;;;;;12.30;8.80;;;13.70;99.90;;;;;;5012728;28;20223;-81
2021/08/12 03:21:06;;;;;;;10.80;8.67;;;13.70;99.90;;;;;;5012047;28;20205;-81
2021/08/12 03:23:33;;;;;;;10.70;7.13;;;13.70;99.90;;;;;;5011824;28;20563;-80
2021/08/12 03:26:00;;;;;;;10.97;7.70;;;13.20;99.90;;;;;;5023426;28;20680;-80
2021/08/12 03:28:27;;;;;;;12.53;8.30;;;13.10;99.90;;;;;;5032006;28;20213;-80
2021/08/12 03:30:53;;;;;;;11.30;8.17;;;13.00;99.90;;;;;;5018718;28;20587;-80
2021/08/12 03:33:20;;;;;;;11.57;8.67;;;13.10;99.90;;;;;;5011600;28;20208;-81
2021/08/12 03:35:49;;;;;;;12.10;8.43;;;13.10;99.90;;;;;;5012125;28;20211;-81
2021/08/12 03:38:16;;;;;;;11.97;8.67;;;13.20;99.90;;;;;;5012057;28;20291;-81
2021/08/12 03:40:43;;;;;;;12.57;8.50;;;13.30;99.90;;;;;;5011110;28;20362;-81
2021/08/12 03:43:10;;;;;;;12.03;8.20;;;13.30;99.90;;;;;;5011709;28;20220;-81
2021/08/12 03:45:36;;;;;;;13.00;8.50;;;13.10;99.90;;;;;;5011616;28;20208;-81
2021/08/12 03:48:04;;;;;;;11.83;8.73;;;13.00;99.90;;;;;;5011650;28;20204;-81
2021/08/12 03:50:30;;;;;;;9.77;8.00;;;12.90;99.90;;;;;;5011739;28;20231;-81
2021/08/12 03:52:59;;;;;;;9.97;7.30;;;13.00;99.90;;;;;;5011757;28;20193;-81
2021/08/12 03:55:26;;;;;;;11.80;7.80;;;12.90;99.90;;;;;;5011595;28;20572;-81
2021/08/12 03:57:52;;;;;;;11.70;7.73;;;12.80;99.90;;;;;;5011159;28;20208;-81
2021/08/12 04:00:19;;;;;;;12.50;8.53;;;12.90;99.90;;;;;;5010886;28;20283;-81
2021/08/12 04:02:46;;;;;;;12.67;8.47;;;12.70;99.90;;;;;;5000932;28;20569;-81
2021/08/12 04:05:13;;;;;;;13.97;8.17;;;12.80;99.90;;;;;;5002000;28;20201;-81
2021/08/12 04:07:40;;;;;;;11.10;8.17;;;13.10;99.90;;;;;;5014422;28;20200;-81
2021/08/12 04:10:10;;;;;;;13.70;9.03;;;13.00;99.90;;;;;;5009789;28;20208;-80
2021/08/12 04:12:37;;;;;;;15.73;9.20;;;12.90;99.90;;;;;;5010308;28;20264;-80
2021/08/12 04:15:04;;;;;;;13.33;9.17;;;13.10;99.90;;;;;;5007349;28;20209;-80
2021/08/12 04:17:31;;;;;;;13.90;8.43;;;13.20;99.90;;;;;;5010448;28;20581;-80
2021/08/12 04:19:58;;;;;;;14.57;9.07;;;13.10;99.90;;;;;;5011393;28;20200;-80
2021/08/12 04:22:24;;;;;;;15.47;8.67;;;13.10;99.90;;;;;;5007995;28;20201;-80
2021/08/12 04:24:51;;;;;;;15.90;8.77;;;13.30;99.90;;;;;;5012602;28;20708;-80
2021/08/12 04:27:19;;;;;;;12.23;8.10;;;13.50;99.90;;;;;;5030286;28;20204;-80
2021/08/12 04:29:46;;;;;;;15.50;8.40;;;13.50;99.90;;;;;;5027715;28;20568;-81
2021/08/12 04:32:13;;;;;;;16.70;8.80;;;13.50;99.90;;;;;;5011402;28;20212;-82
2021/08/12 04:34:40;;;;;;;10.40;7.60;;;13.50;99.90;;;;;;5011049;28;20295;-81
2021/08/12 04:37:07;;;;;;;15.60;8.60;;;13.60;99.90;;;;;;5010942;28;20211;-81
2021/08/12 04:39:33;;;;;;;13.27;8.03;;;13.70;99.90;;;;;;5011316;28;20291;-81
2021/08/12 04:42:00;;;;;;;20.53;8.73;;;13.60;99.90;;;;;;5011284;28;20223;-81
2021/08/12 04:44:28;;;;;;;15.00;7.93;;;13.50;99.90;;;;;;5012170;28;20446;-82
2021/08/12 04:46:55;;;;;;;11.37;7.87;;;13.60;99.90;;;;;;5013653;28;20295;-81
2021/08/12 04:49:22;;;;;;;13.60;7.37;;;13.70;99.90;;;;;;5015305;28;20200;-81
2021/08/12 04:51:49;;;;;;;17.70;10.93;;;13.70;99.90;;;;;;5014357;28;20196;-81
2021/08/12 04:54:16;;;;;;;11.40;7.90;;;13.70;99.90;;;;;;5014589;28;20196;-81
2021/08/12 04:56:43;;;;;;;11.57;7.80;;;13.70;99.90;;;;;;5014494;28;20239;-81
2021/08/12 04:59:10;;;;;;;16.90;8.27;;;13.60;99.90;;;;;;5011149;28;20211;-81
2021/08/12 05:01:38;;;;;;;25.07;9.30;;;13.80;99.90;;;;;;5014089;28;20654;-81
2021/08/12 05:04:05;;;;;;;28.17;9.07;;;13.90;99.90;;;;;;5013341;28;20227;-81
2021/08/12 05:06:33;;;;;;;17.67;8.33;;;13.80;99.90;;;;;;5018212;28;20200;-81
2021/08/12 05:09:00;;;;;;;14.13;8.20;;;13.80;99.90;;;;;;5009984;28;20624;-81
2021/08/12 05:11:27;;;;;;;15.57;8.30;;;13.90;99.90;;;;;;5014119;28;20567;-81
2021/08/12 05:13:54;;;;;;;12.93;8.43;;;14.00;99.90;;;;;;5010365;28;20646;-81
2021/08/12 05:16:21;;;;;;;14.20;9.30;;;14.10;99.90;;;;;;5021137;28;20214;-81
2021/08/12 05:18:49;;;;;;;14.70;9.70;;;14.30;99.90;;;;;;5013477;28;20212;-81
2021/08/12 05:21:16;;;;;;;14.50;9.30;;;14.50;99.90;;;;;;5014750;28;20196;-75
2021/08/12 05:23:44;;;;;;;14.17;9.37;;;14.60;99.90;;;;;;5013900;28;20224;-81
2021/08/12 05:26:11;;;;;;;13.83;9.13;;;14.70;99.90;;;;;;5012759;28;20239;-74
2021/08/12 05:28:38;;;;;;;13.70;10.00;;;14.80;99.90;;;;;;5014040;28;20200;-76
2021/08/12 05:31:05;;;;;;;14.23;9.53;;;14.80;99.90;;;;;;5012557;28;20634;-76
2021/08/12 05:33:34;;;;;;;17.73;10.73;;;14.90;99.90;;;;;;5013289;28;20204;-76
2021/08/12 05:36:02;;;;;;;19.50;11.00;;;14.90;99.90;;;;;;5012498;28;20212;-81
2021/08/12 05:38:30;;;;;;;17.97;9.87;;;14.90;99.90;;;;;;5011323;28;20288;-81
2021/08/12 05:40:57;;;;;;;15.70;10.43;;;15.00;99.90;;;;;;5011267;28;20669;-81
2021/08/12 05:43:24;;;;;;;16.90;9.77;;;15.10;99.90;;;;;;5013264;28;20235;-81
2021/08/12 05:45:51;;;;;;;23.63;10.87;;;15.30;99.90;;;;;;5012229;28;20254;-81
2021/08/12 05:48:19;;;;;;;17.27;10.07;;;15.30;99.90;;;;;;5012862;28;20208;-74
2021/08/12 05:50:46;;;;;;;20.30;10.00;;;15.20;99.90;;;;;;5012404;28;20609;-75
2021/08/12 05:53:16;;;;;;;17.30;9.87;;;15.30;99.90;;;;;;5007661;28;20201;-74
2021/08/12 05:55:44;;;;;;;15.80;9.83;;;15.30;99.90;;;;;;5006947;28;20251;-74
2021/08/12 05:58:11;;;;;;;14.10;10.23;;;15.40;99.90;;;;;;5008085;28;20258;-74
2021/08/12 06:00:38;;;;;;;13.63;9.80;;;15.50;99.90;;;;;;5012033;28;20274;-76
2021/08/12 06:03:08;;;;;;;13.55;9.63;;;15.60;99.90;;;;;;5010781;28;20252;-81
2021/08/12 06:05:36;;;;;;;15.38;10.02;;;15.70;99.90;;;;;;5011359;28;20200;-76
2021/08/12 06:08:04;;;;;;;16.80;10.05;;;15.80;99.90;;;;;;5012218;28;20247;-81
2021/08/12 06:10:34;;;;;;;15.60;10.80;;;15.70;99.90;;;;;;5012082;28;20258;-81
2021/08/12 06:13:01;;;;;;;19.30;10.90;;;15.70;99.90;;;;;;5011497;28;20231;-76
2021/08/12 06:15:29;;;;;;;15.27;10.10;;;15.60;99.90;;;;;;5010620;28;20188;-76
2021/08/12 06:17:56;;;;;;;18.00;10.67;;;15.70;99.90;;;;;;5013124;28;20254;-76
2021/08/12 06:20:23;;;;;;;17.58;10.70;;;15.80;99.90;;;;;;5011290;28;20365;-76
2021/08/12 06:22:52;;;;;;;16.33;11.07;;;16.00;99.90;;;;;;4995634;28;20275;-76
2021/08/12 06:25:21;;;;;;;16.63;10.77;;;16.30;99.90;;;;;;4999911;28;20749;-75
2021/08/12 06:27:49;;;;;;;15.65;11.40;;;16.40;99.90;;;;;;5009748;28;20571;-75
2021/08/12 06:30:16;;;;;;;15.25;10.73;;;16.40;99.90;;;;;;5011007;28;20525;-76
2021/08/12 06:32:43;;;;;;;14.18;10.68;;;16.60;99.90;;;;;;5011785;28;20263;-76
2021/08/12 06:35:12;;;;;;;14.52;10.43;;;16.70;99.90;;;;;;5009945;28;20254;-79
2021/08/12 06:37:43;;;;;;;15.13;10.30;;;16.90;99.90;;;;;;5011065;28;20196;-79
2021/08/12 06:40:11;;;;;;;16.88;10.43;;;17.00;99.90;;;;;;4995595;28;20745;-79
2021/08/12 06:42:38;;;;;;;12.43;9.63;;;17.00;99.90;;;;;;5010077;28;20712;-80
2021/08/12 06:45:07;;;;;;;13.77;9.95;;;17.10;99.90;;;;;;5005224;28;20599;-80
2021/08/12 06:47:36;;;;;;;12.88;9.82;;;17.20;99.90;;;;;;5012202;28;20553;-80
2021/08/12 06:50:03;;;;;;;14.95;9.60;;;17.20;99.90;;;;;;5009414;28;20216;-81
2021/08/12 06:52:31;;;;;;;13.73;9.43;;;17.40;99.90;;;;;;5016112;28;20232;-81
2021/08/12 06:54:58;;;;;;;15.18;10.38;;;17.60;99.90;;;;;;5011000;28;20201;-81
2021/08/12 06:57:25;;;;;;;12.55;9.48;;;17.70;99.90;;;;;;5009821;28;20263;-81
2021/08/12 06:59:52;;;;;;;11.07;8.75;;;17.80;99.90;;;;;;4993221;28;20213;-81
2021/08/12 07:02:20;;;;;;;12.77;8.80;;;17.90;99.90;;;;;;4993611;28;20201;-81
2021/08/12 07:04:47;;;;;;;12.43;8.70;;;17.90;99.90;;;;;;5012258;28;20642;-81
2021/08/12 07:07:14;;;;;;;11.13;8.73;;;18.00;99.90;;;;;;5015463;28;20624;-80
2021/08/12 07:09:42;;;;;;;12.50;9.73;;;18.10;99.90;;;;;;5011899;28;20258;-81
2021/08/12 07:12:10;;;;;;;12.93;8.85;;;18.30;99.90;;;;;;5001285;28;20233;-81
2021/08/12 07:14:38;;;;;;;11.48;9.07;;;18.50;99.90;;;;;;5008142;28;20208;-81
2021/08/12 07:17:05;;;;;;;13.88;8.45;;;18.70;99.90;;;;;;5009288;28;20595;-81
2021/08/12 07:19:34;;;;;;;11.75;8.18;;;18.60;99.90;;;;;;5026705;28;20222;-81
2021/08/12 07:22:01;;;;;;;11.45;7.93;;;18.70;99.90;;;;;;5018040;28;20211;-81
2021/08/12 07:24:28;;;;;;;14.00;7.90;;;18.80;99.90;;;;;;5021614;28;20216;-81
2021/08/12 07:26:57;;;;;;;13.70;8.18;;;18.90;99.90;;;;;;5009890;28;20193;-81
2021/08/12 07:29:24;;;;;;;13.25;7.55;;;19.10;99.90;;;;;;5020985;28;20202;-81
2021/08/12 07:31:51;;;;;;;11.25;7.32;;;19.20;99.90;;;;;;5028314;28;20204;-81
2021/08/12 07:34:20;;;;;;;11.63;6.47;;;19.40;99.90;;;;;;5012102;28;20282;-81
2021/08/12 07:36:48;;;;;;;8.80;7.38;;;19.60;99.90;;;;;;5011945;28;20278;-81
2021/08/12 07:39:16;;;;;;;9.73;7.10;;;19.90;99.90;;;;;;5012349;28;20200;-81
2021/08/12 07:41:44;;;;;;;10.55;5.50;;;20.10;99.90;;;;;;5011600;28;20215;-81
2021/08/12 07:44:13;;;;;;;11.98;5.97;;;20.40;99.90;;;;;;5009088;28;20572;-81
2021/08/12 07:46:40;;;;;;;9.18;6.07;;;20.70;99.90;;;;;;5010632;28;20204;-82
2021/08/12 07:49:07;;;;;;;8.50;5.35;;;20.70;99.90;;;;;;5012064;28;20262;-82
2021/08/12 07:51:36;;;;;;;7.00;5.22;;;21.00;99.90;;;;;;5011661;28;20204;-81
2021/08/12 07:54:04;;;;;;;7.65;5.00;;;21.10;99.90;;;;;;5012063;28;20566;-82
2021/08/12 07:56:31;;;;;;;6.82;4.57;;;21.30;99.90;;;;;;5011737;28;20236;-82
2021/08/12 07:58:59;;;;;;;5.88;4.88;;;21.30;99.90;;;;;;5011911;28;20232;-82
2021/08/12 08:01:26;;;;;;;6.10;4.82;;;21.40;99.90;;;;;;5011824;28;20732;-81
2021/08/12 08:03:54;;;;;;;6.55;5.20;;;21.60;99.90;;;;;;5011424;28;20266;-82
2021/08/12 08:06:21;;;;;;;6.63;4.85;;;21.70;99.90;;;;;;5011687;28;20193;-82
2021/08/12 08:08:48;;;;;;;8.40;4.75;;;21.80;99.90;;;;;;5011913;28;20869;-82
2021/08/12 08:11:17;;;;;;;5.47;4.88;;;22.00;99.90;;;;;;5011673;28;20274;-82
2021/08/12 08:13:45;;;;;;;6.80;5.05;;;22.00;99.90;;;;;;5011350;28;20204;-81
2021/08/12 08:16:12;;;;;;;7.78;4.80;;;22.00;99.90;;;;;;5011478;28;20684;-82
2021/08/12 08:18:39;;;;;;;7.00;4.80;;;22.00;99.90;;;;;;5012457;28;20630;-82
2021/08/12 08:21:06;;;;;;;5.57;4.13;;;22.10;99.90;;;;;;5014828;28;20619;-82
2021/08/12 08:23:33;;;;;;;6.57;4.90;;;22.30;99.90;;;;;;5015194;28;20255;-82
2021/08/12 08:26:00;;;;;;;5.38;4.55;;;22.30;99.90;;;;;;5016068;28;20394;-82
2021/08/12 08:28:28;;;;;;;6.15;4.43;;;22.50;99.90;;;;;;5015739;28;20196;-82
2021/08/12 08:30:56;;;;;;;6.28;4.38;;;22.50;99.90;;;;;;5015867;28;20216;-81
2021/08/12 08:33:23;;;;;;;5.72;4.45;;;22.60;99.90;;;;;;5015600;28;20258;-81
2021/08/12 08:35:49;;;;;;;5.97;4.40;;;22.60;99.90;;;;;;5015976;28;21057;-82
2021/08/12 08:38:16;;;;;;;6.13;4.35;;;22.70;99.90;;;;;;5015644;28;20542;-81
2021/08/12 08:40:44;;;;;;;5.63;4.43;;;22.80;99.90;;;;;;5015809;28;20658;-81
2021/08/12 08:43:11;;;;;;;4.60;4.10;;;22.90;99.90;;;;;;5015561;28;20658;-82
2021/08/12 08:45:45;;;;;;;6.55;4.47;;;23.00;99.90;;;;;;5015402;28;20700;-82
2021/08/12 08:48:16;;;;;;;6.55;4.72;;;23.10;99.90;;;;;;5015230;28;20208;-82
2021/08/12 08:50:45;;;;;;;6.30;4.07;;;23.20;99.90;;;;;;5015142;28;20200;-81
2021/08/12 08:53:16;;;;;;;5.35;4.10;;;23.40;99.90;;;;;;5010205;28;20198;-81
2021/08/12 08:55:44;;;;;;;9.55;4.70;;;23.40;99.90;;;;;;5012233;28;20573;-82
2021/08/12 08:58:13;;;;;;;5.35;4.28;;;23.40;99.90;;;;;;5013662;28;20196;-82
2021/08/12 09:00:41;;;;;;;5.32;4.30;;;23.70;99.90;;;;;;5014402;28;20628;-81
2021/08/12 09:03:08;;;;;;;4.97;4.43;;;23.80;99.90;;;;;;5014943;28;20247;-82
2021/08/12 09:05:36;;;;;;;6.90;4.28;;;24.50;99.90;;;;;;5014627;28;20649;-82
2021/08/12 09:08:04;;;;;;;4.45;4.05;;;24.90;99.90;;;;;;5014593;28;20218;-82
2021/08/12 09:10:31;;;;;;;4.65;4.00;;;25.10;99.90;;;;;;5014704;28;20550;-82
2021/08/12 09:12:58;;;;;;;6.13;4.55;;;25.50;99.90;;;;;;5014661;28;20205;-83
2021/08/12 09:15:25;;;;;;;5.28;4.13;;;25.90;99.90;;;;;;5014635;28;20228;-82
2021/08/12 09:17:57;;;;;;;5.70;4.60;;;25.90;99.90;;;;;;5014612;28;20208;-82
2021/08/12 09:20:26;;;;;;;6.28;4.38;;;26.10;99.90;;;;;;5014910;28;20200;-83
2021/08/12 09:22:56;;;;;;;4.80;4.20;;;26.30;99.90;;;;;;5015087;28;20209;-77
2021/08/12 09:25:33;;;;;;;6.28;4.40;;;26.60;99.90;;;;;;5014053;28;20216;-77
2021/08/12 09:28:22;;;;;;;5.53;4.30;;;26.90;99.90;;;;;;5014775;28;20208;-77
2021/08/12 09:31:13;;;;;;;6.32;4.75;;;26.70;99.90;;;;;;5008589;28;20227;-77
2021/08/12 09:33:52;;;;;;;7.47;4.22;;;27.30;99.90;;;;;;5013874;28;20200;-77
2021/08/12 09:36:24;;;;;;;7.60;4.30;;;27.60;99.90;;;;;;5014210;28;20212;-78
2021/08/12 09:39:13;;;;;;;5.25;4.07;;;27.90;99.90;;;;;;5014103;28;20686;-78
2021/08/12 09:41:42;;;;;;;5.38;4.25;;;27.40;99.90;;;;;;5014040;28;20200;-77
2021/08/12 09:44:37;;;;;;;5.40;3.92;;;27.60;99.90;;;;;;5013744;28;20216;-77
2021/08/12 09:47:06;;;;;;;4.47;4.07;;;27.00;99.90;;;;;;5014349;28;20205;-77
2021/08/12 09:49:43;;;;;;;4.55;4.00;;;27.00;99.90;;;;;;5013944;28;20205;-77
2021/08/12 09:52:21;;;;;;;5.35;4.38;;;27.00;99.90;;;;;;5013955;28;20659;-77
2021/08/12 09:54:56;;;;;;;5.10;4.03;;;27.40;99.90;;;;;;5013478;28;20721;-77
2021/08/12 09:57:23;;;;;;;5.60;4.40;;;27.40;99.90;;;;;;5014151;28;20287;-77
2021/08/12 09:59:51;;;;;;;7.03;4.45;;;27.70;99.90;;;;;;5013773;28;20200;-77
2021/08/12 10:02:18;;;;;;;5.45;4.05;;;27.40;99.90;;;;;;5013984;28;20619;-77
2021/08/12 10:04:47;;;;;;;5.18;4.50;;;28.20;99.90;;;;;;5013034;28;20224;-77
2021/08/12 10:07:35;;;;;;;6.55;4.18;;;28.10;99.90;;;;;;5013742;28;20254;-77
2021/08/12 10:10:10;;;;;;;4.90;3.97;;;28.40;99.90;;;;;;5013560;28;20196;-77
2021/08/12 10:12:42;;;;;;;4.60;4.05;;;28.90;99.90;;;;;;5013492;28;20204;-77
2021/08/12 10:15:11;;;;;;;5.45;4.22;;;28.60;99.90;;;;;;5012964;28;20223;-77
2021/08/12 10:17:40;;;;;;;5.03;3.90;;;28.80;99.90;;;;;;5013539;28;20200;-77
2021/08/12 10:20:11;;;;;;;8.00;4.22;;;28.50;99.90;;;;;;5013307;28;20197;-77
2021/08/12 10:22:39;;;;;;;5.57;4.00;;;28.40;99.90;;;;;;5013296;28;20196;-77
2021/08/12 10:25:07;;;;;;;6.07;4.20;;;28.70;99.90;;;;;;5012853;28;20262;-77
2021/08/12 10:27:37;;;;;;;5.25;4.47;;;29.00;99.90;;;;;;5007323;28;20209;-77
2021/08/12 10:30:04;;;;;;;5.38;4.40;;;29.00;99.90;;;;;;5005269;28;20255;-77
2021/08/12 10:32:31;;;;;;;7.07;4.32;;;29.20;99.90;;;;;;5011940;28;20736;-77
2021/08/12 10:34:59;;;;;;;5.55;4.22;;;29.60;99.90;;;;;;5012086;28;20200;-77
2021/08/12 10:37:27;;;;;;;4.47;3.70;;;29.40;99.90;;;;;;5011305;28;20196;-77
2021/08/12 10:39:55;;;;;;;5.93;4.68;;;29.50;99.90;;;;;;5010872;28;20228;-77
2021/08/12 10:42:22;;;;;;;5.00;4.00;;;29.70;99.90;;;;;;5010417;28;20196;-77
2021/08/12 10:44:50;;;;;;;6.18;4.13;;;28.80;99.90;;;;;;5012559;28;20662;-77
2021/08/12 10:47:39;;;;;;;7.25;4.60;;;28.70;99.90;;;;;;5013355;28;20204;-77
2021/08/12 10:50:27;;;;;;;9.13;4.15;;;28.50;99.90;;;;;;5012860;28;20201;-77
2021/08/12 10:53:19;;;;;;;6.63;4.32;;;28.80;99.90;;;;;;5013059;28;20714;-77
2021/08/12 10:56:07;;;;;;;4.78;4.00;;;29.40;99.90;;;;;;5012634;28;20243;-77
2021/08/12 10:58:35;;;;;;;4.55;3.97;;;29.30;99.90;;;;;;5013247;28;20228;-77
2021/08/12 11:01:04;;;;;;;4.75;4.07;;;29.00;99.90;;;;;;5012412;28;20200;-77
2021/08/12 11:03:45;;;;;;;5.93;4.40;;;28.70;99.90;;;;;;5012639;28;20199;-77
2021/08/12 11:06:16;;;;;;;4.70;4.18;;;28.70;99.90;;;;;;5012495;28;20228;-77
2021/08/12 11:09:04;;;;;;;6.45;4.22;;;29.50;99.90;;;;;;5012603;28;20611;-77
2021/08/12 11:11:57;;;;;;;4.22;3.70;;;29.80;99.90;;;;;;5012648;28;20244;-77
2021/08/12 11:14:58;;;;;;;5.03;4.00;;;29.50;99.90;;;;;;5012186;28;20291;-77
2021/08/12 11:17:46;;;;;;;6.68;4.50;;;29.50;99.90;;;;;;5012700;28;20238;-77
2021/08/12 11:20:31;;;;;;;4.63;3.63;;;29.90;99.90;;;;;;5012129;28;20258;-77
2021/08/12 11:22:58;;;;;;;5.63;3.60;;;30.00;99.90;;;;;;5012331;28;20203;-77
2021/08/12 11:25:56;;;;;;;5.78;4.22;;;29.60;99.90;;;;;;5011883;28;20310;-77
2021/08/12 11:28:54;;;;;;;7.43;4.47;;;29.10;99.90;;;;;;5012339;28;20254;-77
2021/08/12 11:31:52;;;;;;;6.55;4.30;;;28.90;99.90;;;;;;4969318;28;20221;-76
2021/08/12 11:34:25;;;;;;;4.97;4.00;;;28.30;99.90;;;;;;4987947;28;20217;-76
2021/08/12 11:37:14;;;;;;;5.07;4.20;;;28.20;99.90;;;;;;5000249;28;20319;-76
2021/08/12 11:39:51;;;;;;;4.90;4.30;;;28.30;99.90;;;;;;5012245;28;20223;-77
2021/08/12 11:42:25;;;;;;;7.15;4.78;;;28.10;99.90;;;;;;5011714;28;20232;-76
2021/08/12 11:44:55;;;;;;;5.72;4.00;;;27.80;99.90;;;;;;4992580;28;20772;-76
2021/08/12 11:47:22;;;;;;;8.15;4.90;;;27.50;99.90;;;;;;5006363;28;20204;-76
2021/08/12 11:49:50;;;;;;;6.20;4.70;;;27.60;99.90;;;;;;5011784;28;20247;-77
2021/08/12 11:52:27;;;;;;;7.63;4.82;;;27.70;99.90;;;;;;5012095;28;20232;-77
2021/08/12 11:54:56;;;;;;;7.90;4.45;;;27.60;99.90;;;;;;5011148;28;20230;-76
2021/08/12 12:00:18;;;;;;;7.10;3.97;;;27.80;99.90;;;;;;5109769;27;21077;-76
2021/08/12 12:02:47;;;;;;;8.98;5.60;;;27.70;99.90;;;;;;5109693;28;20669;-76
2021/08/12 12:05:14;;;;;;;7.80;4.93;;;27.90;99.90;;;;;;5109297;28;20201;-76
2021/08/12 12:07:43;;;;;;;8.23;4.65;;;28.00;99.90;;;;;;5108923;28;20250;-76
2021/08/12 12:10:10;;;;;;;5.43;4.10;;;28.40;99.90;;;;;;5099213;28;20550;-77
2021/08/12 12:12:37;;;;;;;5.28;4.22;;;28.90;99.90;;;;;;5093946;28;20201;-76
2021/08/12 12:15:05;;;;;;;5.20;3.90;;;28.80;99.90;;;;;;5097034;28;20233;-76
2021/08/12 12:17:33;;;;;;;6.32;4.28;;;28.90;99.90;;;;;;5097412;28;20189;-76
2021/08/12 12:20:13;;;;;;;11.65;4.07;;;28.80;99.90;;;;;;5095933;28;20229;-76
2021/08/12 12:22:42;;;;;;;6.35;3.90;;;28.70;99.90;;;;;;5095411;28;20271;-77
2021/08/12 12:25:12;;;;;;;5.95;4.60;;;28.60;99.90;;;;;;5098925;28;20270;-77
2021/08/12 12:27:40;;;;;;;6.97;4.50;;;28.60;99.90;;;;;;5092068;28;20315;-76
2021/08/12 12:30:10;;;;;;;4.72;4.07;;;28.40;99.90;;;;;;5096425;28;20206;-76
2021/08/12 12:32:40;;;;;;;4.93;4.18;;;28.90;99.90;;;;;;5100505;28;20198;-76
2021/08/12 12:35:07;;;;;;;7.45;4.45;;;28.60;99.90;;;;;;5094354;28;20202;-75
2021/08/12 12:37:36;;;;;;;7.18;3.95;;;28.70;99.90;;;;;;5087764;28;20617;-76
2021/08/12 12:40:04;;;;;;;7.72;4.85;;;28.20;99.90;;;;;;5097587;28;20576;-75
2021/08/12 12:42:33;;;;;;;5.55;4.15;;;28.70;99.90;;;;;;5101373;28;20205;-76
2021/08/12 12:45:04;;;;;;;8.15;4.30;;;29.30;99.90;;;;;;5098342;28;21011;-78
2021/08/12 12:47:32;;;;;;;6.90;3.90;;;29.80;99.90;;;;;;5093130;28;20609;-77
2021/08/12 12:50:10;;;;;;;6.38;3.75;;;30.00;99.90;;;;;;5098332;28;20201;-78
2021/08/12 12:52:37;;;;;;;4.28;3.58;;;29.90;99.90;;;;;;5092985;28;20202;-78
2021/08/12 12:55:17;;;;;;;7.25;4.00;;;29.60;99.90;;;;;;5097578;28;20209;-78
2021/08/12 12:57:46;;;;;;;4.18;3.60;;;29.60;99.90;;;;;;5094668;28;20201;-78